Time;durP1;ratioP1;P1;durP2;ratioP2;P2;SDS_P1;SDS_P2;PMS_P1;PMS_P2;Temp;Humidity;BMP_temperature;BMP_pressure;BME280_temperature;BME280_humidity;BME280_pressure;Samples;Min_cycle;Max_cycle;Signal;HPM_P1;HPM_P2
2023/02/10 00:01:10;;;;;;;242.95;16.80;;;;;;;-6.33;100.00;99756.25;4958357;28;20042;-58
2023/02/10 00:03:36;;;;;;;246.35;17.23;;;;;;;-6.33;100.00;99747.75;4961122;28;20034;-60
2023/02/10 00:06:03;;;;;;;195.43;15.52;;;;;;;-6.35;100.00;99746.72;4960260;28;20597;-59
2023/02/10 00:08:29;;;;;;;205.00;16.00;;;;;;;-6.39;100.00;99745.53;4960959;28;20041;-59
2023/02/10 00:10:59;;;;;;;238.93;16.73;;;;;;;-6.48;100.00;99744.69;4958517;28;20194;-59
2023/02/10 00:13:25;;;;;;;208.02;15.05;;;;;;;-6.54;100.00;99734.88;4960468;28;20292;-60
2023/02/10 00:15:51;;;;;;;260.90;18.40;;;;;;;-6.65;100.00;99733.88;4958913;28;20043;-59
2023/02/10 00:18:17;;;;;;;207.23;16.95;;;;;;;-6.67;100.00;99738.84;4959095;28;20034;-59
2023/02/10 00:20:42;;;;;;;226.60;17.50;;;;;;;-6.71;100.00;99744.34;4956813;28;20300;-59
2023/02/10 00:23:08;;;;;;;206.25;11.90;;;;;;;-6.67;100.00;99743.91;4958469;28;20022;-60
2023/02/10 00:25:37;;;;;;;190.20;16.75;;;;;;;-6.51;100.00;99745.31;4960876;28;20528;-60
2023/02/10 00:28:03;;;;;;;243.35;16.52;;;;;;;-6.70;100.00;99743.59;4960981;28;20026;-59
2023/02/10 00:30:29;;;;;;;179.15;14.55;;;;;;;-6.77;100.00;99746.28;4960133;28;20051;-59
2023/02/10 00:32:55;;;;;;;167.20;13.60;;;;;;;-6.82;100.00;99744.97;4961231;28;20448;-60
2023/02/10 00:35:20;;;;;;;204.55;13.68;;;;;;;-7.01;100.00;99745.78;4960815;28;20105;-59
2023/02/10 00:37:46;;;;;;;168.43;12.55;;;;;;;-6.99;100.00;99746.81;4961289;28;20038;-58
2023/02/10 00:40:11;;;;;;;215.75;13.77;;;;;;;-7.10;100.00;99757.53;4959748;28;20607;-58
2023/02/10 00:42:36;;;;;;;200.63;14.23;;;;;;;-7.14;100.00;99771.53;4960773;28;20058;-59
2023/02/10 00:45:03;;;;;;;192.30;13.57;;;;;;;-7.22;100.00;99768.28;4960956;28;20034;-59
2023/02/10 00:47:29;;;;;;;221.75;14.93;;;;;;;-7.25;100.00;99768.00;4960563;28;20130;-58
2023/02/10 00:49:54;;;;;;;184.75;8.02;;;;;;;-7.08;100.00;99764.56;4960641;28;20049;-58
2023/02/10 00:52:19;;;;;;;154.48;11.10;;;;;;;-7.14;100.00;99763.06;4959493;28;20066;-59
2023/02/10 00:54:45;;;;;;;137.43;13.05;;;;;;;-7.24;100.00;99767.22;4960478;28;20358;-58
2023/02/10 00:57:10;;;;;;;185.45;12.70;;;;;;;-7.21;100.00;99756.53;4959933;28;20132;-60
2023/02/10 00:59:35;;;;;;;297.15;16.92;;;;;;;-7.17;100.00;99762.78;4959185;28;20539;-59
2023/02/10 01:02:01;;;;;;;178.60;15.15;;;;;;;-7.30;100.00;99761.59;4959213;28;20039;-60
2023/02/10 01:04:26;;;;;;;173.57;12.85;;;;;;;-7.25;100.00;99769.63;4960437;28;20255;-58
2023/02/10 01:06:51;;;;;;;211.23;13.85;;;;;;;-7.25;100.00;99769.63;4959459;28;20042;-58
2023/02/10 01:09:17;;;;;;;174.82;13.85;;;;;;;-7.41;100.00;99767.25;4960211;28;20117;-59
2023/02/10 01:11:43;;;;;;;178.45;7.43;;;;;;;-7.35;100.00;99773.78;4958736;28;20042;-59
2023/02/10 01:14:09;;;;;;;194.70;13.85;;;;;;;-7.39;100.00;99778.44;4960294;28;20076;-58
2023/02/10 01:16:35;;;;;;;148.68;12.35;;;;;;;-7.46;100.00;99775.28;4960078;28;20399;-58
2023/02/10 01:19:01;;;;;;;223.25;11.00;;;;;;;-7.41;100.00;99777.38;4960597;28;20105;-58
2023/02/10 01:21:27;;;;;;;186.38;10.38;;;;;;;-7.48;100.00;99786.91;4957259;28;20108;-58
2023/02/10 01:23:52;;;;;;;132.27;7.75;;;;;;;-7.34;100.00;99787.34;4960174;28;20034;-59
2023/02/10 01:26:18;;;;;;;156.85;8.73;;;;;;;-7.32;100.00;99783.31;4959528;28;20030;-59
2023/02/10 01:28:43;;;;;;;144.13;10.85;;;;;;;-7.32;100.00;99785.84;4960412;28;20172;-59
2023/02/10 01:31:12;;;;;;;261.25;15.43;;;;;;;-7.44;100.00;99790.59;4957893;28;20037;-59
2023/02/10 01:33:38;;;;;;;172.30;12.60;;;;;;;-7.53;100.00;99784.66;4959664;28;20030;-59
2023/02/10 01:36:08;;;;;;;196.18;14.27;;;;;;;-7.76;100.00;99786.72;4959394;28;20049;-59
2023/02/10 01:38:34;;;;;;;182.50;13.27;;;;;;;-7.68;100.00;99794.16;4959137;28;20033;-61
2023/02/10 01:40:59;;;;;;;179.70;13.80;;;;;;;-7.71;100.00;99790.56;4958538;28;20047;-60
2023/02/10 01:43:25;;;;;;;221.80;13.95;;;;;;;-7.73;100.00;99793.69;4958997;28;20468;-61
2023/02/10 01:45:50;;;;;;;172.82;13.23;;;;;;;-7.73;100.00;99794.59;4959538;28;20123;-61
2023/02/10 01:48:16;;;;;;;145.75;11.27;;;;;;;-7.69;100.00;99799.97;4959981;28;20034;-61
2023/02/10 01:50:54;;;;;;;208.70;7.90;;;;;;;-7.56;100.00;99808.00;4958256;28;20042;-61
2023/02/10 01:53:21;;;;;;;166.07;11.90;;;;;;;-7.67;100.00;99803.53;4959316;28;20081;-59
2023/02/10 01:55:52;;;;;;;199.00;12.88;;;;;;;-7.77;100.00;99800.09;4958623;28;20042;-59
2023/02/10 01:58:23;;;;;;;146.82;13.35;;;;;;;-7.89;100.00;99797.28;4960009;28;20026;-60
2023/02/10 02:00:48;;;;;;;189.55;13.45;;;;;;;-7.90;100.00;99795.50;4958211;28;20042;-61
2023/02/10 02:03:14;;;;;;;172.13;10.32;;;;;;;-7.76;100.00;99798.47;4959216;28;20931;-59
2023/02/10 02:05:41;;;;;;;158.38;10.32;;;;;;;-7.59;100.00;99800.13;4958108;28;20050;-58
2023/02/10 02:08:13;;;;;;;157.15;12.38;;;;;;;-7.62;100.00;99794.75;4959380;28;20027;-59
2023/02/10 02:10:49;;;;;;;163.75;15.48;;;;;;;-7.78;100.00;99794.91;4957629;28;20504;-59
2023/02/10 02:13:25;;;;;;;164.63;12.88;;;;;;;-7.75;100.00;99792.69;4959413;28;20026;-58
2023/02/10 02:16:05;;;;;;;180.07;15.15;;;;;;;-7.79;100.00;99786.44;4958746;28;20035;-59
2023/02/10 02:18:50;;;;;;;157.95;7.25;;;;;;;-7.74;100.00;99786.88;4959847;28;20294;-58
2023/02/10 02:21:53;;;;;;;253.85;14.90;;;;;;;-7.83;100.00;99786.88;4957360;28;20039;-61
2023/02/10 02:24:35;;;;;;;185.55;14.27;;;;;;;-7.95;100.00;99791.59;4959218;28;20704;-59
2023/02/10 02:27:19;;;;;;;181.25;13.30;;;;;;;-8.04;100.00;99788.16;4958553;28;20532;-59
2023/02/10 02:29:50;;;;;;;213.75;14.32;;;;;;;-8.07;100.00;99801.38;4958601;28;20085;-59
2023/02/10 02:32:18;;;;;;;210.70;14.27;;;;;;;-7.94;100.00;99798.44;4957951;28;20290;-58
2023/02/10 02:34:50;;;;;;;169.10;12.40;;;;;;;-8.03;100.00;99803.47;4959292;28;20095;-59
2023/02/10 02:37:18;;;;;;;216.32;14.20;;;;;;;-8.07;100.00;99808.94;4958229;28;20133;-59
2023/02/10 02:39:44;;;;;;;255.02;15.25;;;;;;;-8.12;100.00;99811.00;4958363;28;20039;-59
2023/02/10 02:42:14;;;;;;;159.82;14.27;;;;;;;-8.13;100.00;99814.28;4958368;28;20047;-59
2023/02/10 02:44:40;;;;;;;182.25;13.65;;;;;;;-8.16;100.00;99815.63;4958617;28;20034;-60
2023/02/10 02:47:27;;;;;;;167.82;13.15;;;;;;;-8.25;100.00;99819.00;4958449;28;20038;-58
2023/02/10 02:50:05;;;;;;;173.25;6.95;;;;;;;-8.24;100.00;99825.84;4957465;28;20373;-58
2023/02/10 02:52:54;;;;;;;208.23;14.38;;;;;;;-8.16;100.00;99818.16;4957504;28;20049;-59
2023/02/10 02:55:32;;;;;;;154.18;12.20;;;;;;;-8.14;100.00;99821.69;4958562;28;20053;-59
2023/02/10 02:58:04;;;;;;;189.38;12.57;;;;;;;-8.22;100.00;99818.41;4958285;28;20023;-59
2023/02/10 03:00:32;;;;;;;192.27;13.90;;;;;;;-8.30;100.00;99821.81;4957236;28;20673;-59
2023/02/10 03:02:59;;;;;;;218.82;13.68;;;;;;;-8.24;100.00;99818.25;4957803;28;20057;-60
2023/02/10 03:05:29;;;;;;;160.75;12.27;;;;;;;-8.27;100.00;99828.06;4958348;28;20518;-58
2023/02/10 03:07:55;;;;;;;217.95;14.00;;;;;;;-8.36;100.00;99824.59;4958544;28;20530;-58
2023/02/10 03:10:23;;;;;;;172.48;13.15;;;;;;;-8.39;100.00;99821.78;4957440;28;20575;-59
2023/02/10 03:12:50;;;;;;;164.50;11.70;;;;;;;-8.36;100.00;99817.91;4958438;28;20035;-59
2023/02/10 03:15:16;;;;;;;191.27;13.40;;;;;;;-8.40;100.00;99819.97;4957980;28;20023;-59
2023/02/10 03:17:41;;;;;;;199.25;13.23;;;;;;;-8.36;100.00;99812.88;4962574;28;20033;-59
2023/02/10 03:20:07;;;;;;;230.32;15.52;;;;;;;-8.46;100.00;99816.84;4961319;28;20327;-59
2023/02/10 03:22:33;;;;;;;176.65;12.15;;;;;;;-8.40;100.00;99814.91;4961726;28;20053;-59
2023/02/10 03:24:58;;;;;;;161.40;10.20;;;;;;;-8.30;100.00;99812.59;4962431;28;20042;-59
2023/02/10 03:27:24;;;;;;;206.70;13.43;;;;;;;-8.17;100.00;99818.88;4961702;28;20031;-59
2023/02/10 03:29:49;;;;;;;180.15;10.50;;;;;;;-8.23;100.00;99821.69;4961605;28;20467;-59
2023/02/10 03:32:16;;;;;;;168.80;8.93;;;;;;;-8.14;100.00;99815.03;4961012;28;20271;-59
2023/02/10 03:34:42;;;;;;;184.98;12.35;;;;;;;-8.15;100.00;99827.50;4961927;28;20494;-59
2023/02/10 03:37:07;;;;;;;157.23;9.23;;;;;;;-8.11;100.00;99819.50;4961703;28;20473;-59
2023/02/10 03:39:32;;;;;;;280.80;15.77;;;;;;;-8.11;100.00;99822.91;4961430;28;20062;-63
2023/02/10 03:41:58;;;;;;;181.85;14.18;;;;;;;-8.19;100.00;99815.31;4961312;28;20416;-61
2023/02/10 03:44:23;;;;;;;178.77;10.10;;;;;;;-8.17;100.00;99814.72;4961700;28;20061;-60
2023/02/10 03:46:49;;;;;;;150.52;12.77;;;;;;;-8.16;100.00;99816.53;4960504;28;20507;-59
2023/02/10 03:49:14;;;;;;;171.00;8.85;;;;;;;-8.10;100.00;99819.66;4961896;28;20062;-59
2023/02/10 03:51:39;;;;;;;230.60;15.65;;;;;;;-8.19;100.00;99830.44;4959598;28;20043;-58
2023/02/10 03:54:05;;;;;;;196.45;13.70;;;;;;;-8.32;100.00;99826.69;4962057;28;20428;-58
2023/02/10 03:56:30;;;;;;;178.02;14.82;;;;;;;-8.34;100.00;99830.69;4961551;28;20046;-58
2023/02/10 03:58:55;;;;;;;211.15;14.32;;;;;;;-8.39;100.00;99837.81;4961859;28;20444;-60
2023/02/10 04:01:21;;;;;;;196.65;10.07;;;;;;;-8.28;100.00;99830.44;4959615;28;20085;-58
2023/02/10 04:03:46;;;;;;;140.95;11.48;;;;;;;-8.12;100.00;99832.88;4962026;28;20213;-59
2023/02/10 04:06:13;;;;;;;157.63;12.57;;;;;;;-8.24;100.00;99827.47;4960857;28;20554;-58
2023/02/10 04:08:38;;;;;;;161.52;12.20;;;;;;;-8.22;100.00;99833.56;4961961;28;20040;-58
2023/02/10 04:11:04;;;;;;;227.00;14.98;;;;;;;-8.20;100.00;99833.72;4959703;28;20034;-58
2023/02/10 04:13:30;;;;;;;155.75;12.10;;;;;;;-8.17;100.00;99836.56;4961554;28;20545;-58
2023/02/10 04:16:16;;;;;;;166.10;12.88;;;;;;;-8.27;100.00;99845.75;4960549;28;20168;-61
2023/02/10 04:18:42;;;;;;;169.93;11.85;;;;;;;-8.32;100.00;99846.88;4961493;28;20083;-59
2023/02/10 04:21:10;;;;;;;241.85;16.45;;;;;;;-8.36;100.00;99845.69;4959268;28;20061;-60
2023/02/10 04:23:35;;;;;;;163.88;12.82;;;;;;;-8.47;100.00;99850.41;4961143;28;20129;-59
2023/02/10 04:26:01;;;;;;;176.80;11.57;;;;;;;-8.42;100.00;99855.19;4960604;28;20038;-58
2023/02/10 04:28:27;;;;;;;202.00;14.32;;;;;;;-8.38;100.00;99863.94;4959741;28;20117;-59
2023/02/10 04:30:54;;;;;;;151.27;12.40;;;;;;;-8.37;100.00;99866.63;4959889;28;20050;-57
2023/02/10 04:33:20;;;;;;;185.90;12.82;;;;;;;-8.38;100.00;99869.00;4960601;28;20031;-58
2023/02/10 04:35:48;;;;;;;158.05;11.77;;;;;;;-8.36;100.00;99865.88;4960888;28;20168;-57
2023/02/10 04:38:15;;;;;;;164.40;11.77;;;;;;;-8.34;100.00;99861.00;4961023;28;20078;-58
2023/02/10 04:40:41;;;;;;;221.57;10.75;;;;;;;-8.30;100.00;99873.19;4959714;28;20831;-58
2023/02/10 04:43:07;;;;;;;165.10;9.05;;;;;;;-8.34;100.00;99876.16;4961055;28;20229;-59
2023/02/10 04:45:33;;;;;;;219.63;13.10;;;;;;;-8.32;100.00;99884.75;4960028;28;20045;-58
2023/02/10 04:47:58;;;;;;;173.35;13.98;;;;;;;-8.46;100.00;99892.56;4960998;28;20521;-57
2023/02/10 04:50:23;;;;;;;186.65;12.63;;;;;;;-8.64;100.00;99882.41;4959485;28;20076;-57
2023/02/10 04:52:49;;;;;;;203.82;13.23;;;;;;;-8.73;100.00;99891.53;4960165;28;20059;-58
2023/02/10 04:55:14;;;;;;;165.30;12.57;;;;;;;-8.78;100.00;99881.88;4960332;28;20432;-57
2023/02/10 04:57:39;;;;;;;162.05;12.90;;;;;;;-8.82;100.00;99884.81;4960222;28;20363;-58
2023/02/10 05:00:06;;;;;;;239.85;15.75;;;;;;;-8.88;100.00;99889.19;4959531;28;20022;-58
2023/02/10 05:02:31;;;;;;;179.32;12.55;;;;;;;-8.85;100.00;99891.13;4959318;28;20174;-58
2023/02/10 05:04:56;;;;;;;214.38;11.60;;;;;;;-8.81;100.00;99891.63;4959885;28;20193;-58
2023/02/10 05:07:23;;;;;;;168.70;12.48;;;;;;;-8.86;100.00;99882.69;4959457;28;20523;-58
2023/02/10 05:09:49;;;;;;;177.10;11.45;;;;;;;-8.70;100.00;99895.28;4959783;28;20114;-57
2023/02/10 05:12:14;;;;;;;178.70;14.00;;;;;;;-8.68;100.00;99892.91;4959106;28;20049;-57
2023/02/10 05:14:40;;;;;;;178.98;14.93;;;;;;;-8.89;100.00;99898.41;4960425;28;20034;-57
2023/02/10 05:17:05;;;;;;;180.13;12.57;;;;;;;-8.92;100.00;99895.56;4959298;28;20042;-61
2023/02/10 05:19:31;;;;;;;233.05;9.45;;;;;;;-8.79;100.00;99890.19;4959706;28;20019;-58
2023/02/10 05:21:57;;;;;;;166.13;8.27;;;;;;;-8.70;100.00;99884.28;4959570;28;20038;-60
2023/02/10 05:24:22;;;;;;;205.68;14.18;;;;;;;-8.60;100.00;99888.63;4959594;28;20492;-58
2023/02/10 05:26:47;;;;;;;164.95;12.27;;;;;;;-8.73;100.00;99891.53;4959843;28;20053;-60
2023/02/10 05:29:13;;;;;;;189.55;12.73;;;;;;;-8.76;100.00;99887.94;4960046;28;20544;-61
2023/02/10 05:31:38;;;;;;;198.05;14.93;;;;;;;-8.74;100.00;99894.78;4958339;28;20481;-59
2023/02/10 05:34:03;;;;;;;161.60;11.85;;;;;;;-8.86;100.00;99887.75;4960239;28;20359;-59
2023/02/10 05:36:29;;;;;;;230.63;13.75;;;;;;;-8.78;100.00;99898.63;4958997;28;20039;-61
2023/02/10 05:41:38;;;;;;;219.90;11.40;;;;;;;-8.68;100.00;99910.56;4957843;28;20283;-56
2023/02/10 05:44:03;;;;;;;163.45;9.18;;;;;;;-8.72;100.00;99906.84;4959782;28;20400;-58
2023/02/10 05:46:29;;;;;;;198.43;10.57;;;;;;;-8.67;100.00;99899.72;4959481;28;20416;-57
2023/02/10 05:48:54;;;;;;;212.60;13.73;;;;;;;-8.69;100.00;99916.34;4954744;28;20110;-59
2023/02/10 05:51:19;;;;;;;205.23;14.38;;;;;;;-8.85;100.00;99918.88;4956831;28;20535;-59
2023/02/10 05:53:45;;;;;;;220.77;12.95;;;;;;;-8.93;100.00;99916.47;4959245;28;20081;-58
2023/02/10 05:56:10;;;;;;;176.68;12.20;;;;;;;-9.02;100.00;99918.91;4959504;28;20043;-60
2023/02/10 05:58:36;;;;;;;184.85;13.18;;;;;;;-9.12;100.00;99915.28;4960134;28;20405;-60
2023/02/10 06:01:07;;;;;;;254.95;16.83;;;;;;;-8.91;100.00;99922.56;4957575;28;20102;-57
2023/02/10 06:03:32;;;;;;;189.65;12.95;;;;;;;-8.86;100.00;99918.00;4957558;28;20093;-57
2023/02/10 06:05:57;;;;;;;204.73;13.88;;;;;;;-8.86;100.00;99923.06;4958836;28;20673;-58
2023/02/10 06:08:23;;;;;;;173.05;11.55;;;;;;;-8.79;100.00;99929.63;4959688;28;20050;-57
2023/02/10 06:10:48;;;;;;;151.15;7.10;;;;;;;-8.82;100.00;99929.31;4957654;28;20797;-57
2023/02/10 06:13:13;;;;;;;241.68;14.20;;;;;;;-8.77;100.00;99934.09;4959123;28;20663;-59
2023/02/10 06:15:39;;;;;;;148.45;6.55;;;;;;;-8.72;100.00;99937.13;4959163;28;20050;-57
2023/02/10 06:18:04;;;;;;;198.60;13.32;;;;;;;-8.77;100.00;99935.72;4959605;28;20022;-57
2023/02/10 06:20:30;;;;;;;174.73;13.57;;;;;;;-8.91;100.00;99944.38;4958004;28;20483;-57
2023/02/10 06:22:55;;;;;;;174.43;11.73;;;;;;;-8.93;100.00;99951.78;4959575;28;20031;-58
2023/02/10 06:25:20;;;;;;;210.48;12.65;;;;;;;-8.93;100.00;99956.84;4958767;28;20058;-57
2023/02/10 06:27:46;;;;;;;199.52;12.48;;;;;;;-8.86;100.00;99960.91;4959306;28;20054;-57
2023/02/10 06:30:11;;;;;;;173.57;11.63;;;;;;;-8.85;100.00;99959.25;4958102;28;20077;-58
2023/02/10 06:32:37;;;;;;;208.63;12.98;;;;;;;-8.86;100.00;99958.38;4957216;28;20109;-58
2023/02/10 06:35:02;;;;;;;193.05;13.60;;;;;;;-8.86;100.00;99963.41;4959486;28;20118;-59
2023/02/10 06:37:28;;;;;;;207.18;11.52;;;;;;;-8.87;100.00;99964.16;4958245;28;20347;-57
2023/02/10 06:39:53;;;;;;;179.38;10.77;;;;;;;-8.67;100.00;99977.94;4958591;28;20058;-59
2023/02/10 06:42:19;;;;;;;158.88;12.25;;;;;;;-8.52;100.00;99976.09;4958531;28;20129;-57
2023/02/10 06:44:44;;;;;;;223.93;16.10;;;;;;;-8.45;100.00;99985.22;4959195;28;20114;-58
2023/02/10 06:47:09;;;;;;;198.38;14.15;;;;;;;-8.36;100.00;99981.09;4959094;28;20035;-57
2023/02/10 06:49:35;;;;;;;270.75;16.25;;;;;;;-8.22;100.00;99992.66;4958783;28;20037;-58
2023/02/10 06:52:00;;;;;;;178.88;14.35;;;;;;;-8.03;100.00;99989.47;4957694;28;20894;-57
2023/02/10 06:54:26;;;;;;;136.50;9.95;;;;;;;-7.83;100.00;99996.59;4959372;28;20034;-57
2023/02/10 06:56:51;;;;;;;255.38;14.90;;;;;;;-7.74;100.00;100004.19;4958135;28;20162;-60
2023/02/10 06:59:17;;;;;;;212.32;15.00;;;;;;;-7.49;100.00;100004.16;4958483;28;20027;-58
2023/02/10 07:01:42;;;;;;;158.35;7.63;;;;;;;-7.21;100.00;100009.44;4957243;28;20042;-58
2023/02/10 07:04:07;;;;;;;203.43;10.55;;;;;;;-7.08;100.00;99999.81;4958331;28;20516;-57
2023/02/10 07:06:33;;;;;;;164.02;10.95;;;;;;;-6.71;100.00;99991.50;4958152;28;20041;-58
2023/02/10 07:08:58;;;;;;;204.93;12.65;;;;;;;-6.47;100.00;99990.47;4959030;28;20039;-58
2023/02/10 07:11:24;;;;;;;154.55;10.05;;;;;;;-6.27;100.00;99989.84;4958010;28;20516;-60
2023/02/10 07:13:49;;;;;;;185.98;12.35;;;;;;;-6.17;100.00;99988.19;4959474;28;20030;-58
2023/02/10 07:16:16;;;;;;;242.13;15.70;;;;;;;-5.86;100.00;99987.63;4958429;28;20593;-59
2023/02/10 07:18:42;;;;;;;172.63;12.27;;;;;;;-5.39;100.00;99993.72;4959210;28;20613;-58
2023/02/10 07:21:07;;;;;;;219.45;17.15;;;;;;;-5.32;100.00;99979.06;4957446;28;20130;-58
2023/02/10 07:23:32;;;;;;;191.75;12.63;;;;;;;-5.33;100.00;99982.34;4959145;28;20022;-59
2023/02/10 07:25:58;;;;;;;162.82;12.60;;;;;;;-5.13;100.00;99984.16;4958778;28;20141;-58
2023/02/10 07:28:23;;;;;;;200.90;13.68;;;;;;;-4.64;100.00;99981.75;4958851;28;20082;-59
2023/02/10 07:30:48;;;;;;;155.57;9.23;;;;;;;-3.62;100.00;99976.06;4972058;28;20078;-58
2023/02/10 07:33:14;;;;;;;149.68;8.70;;;;;;;-3.39;100.00;99978.00;4959046;28;20054;-60
2023/02/10 07:35:39;;;;;;;237.77;14.65;;;;;;;-148.24;100.00;61531.34;4958475;28;20171;-59
2023/02/10 07:38:04;;;;;;;166.68;10.57;;;;;;;-148.24;100.00;61531.34;4958999;28;20121;-59
2023/02/10 07:40:30;;;;;;;178.30;9.00;;;;;;;-148.24;100.00;61531.34;4957446;28;20054;-58
2023/02/10 07:42:56;;;;;;;154.73;11.43;;;;;;;-148.24;100.00;61531.34;4959117;28;20516;-58
2023/02/10 07:45:21;;;;;;;165.82;12.60;;;;;;;-148.24;100.00;61531.34;4958241;28;20023;-59
2023/02/10 07:47:47;;;;;;;217.00;11.88;;;;;;;-148.24;100.00;61531.34;4958530;28;20015;-59
2023/02/10 07:50:12;;;;;;;167.55;11.25;;;;;;;-148.24;100.00;61531.34;4957685;28;20061;-59
2023/02/10 07:52:38;;;;;;;143.05;9.70;;;;;;;-148.24;100.00;61531.34;4958412;28;20081;-60
2023/02/10 07:55:04;;;;;;;203.63;10.63;;;;;;;-148.24;100.00;61531.34;4958943;28;20038;-58
2023/02/10 07:57:30;;;;;;;159.32;12.07;;;;;;;-148.24;100.00;61531.34;4958229;28;20042;-60
2023/02/10 07:59:55;;;;;;;218.90;13.80;;;;;;;-148.24;100.00;61531.34;4957727;28;20035;-59
2023/02/10 08:02:20;;;;;;;150.35;10.05;;;;;;;-148.24;100.00;61531.34;4957520;28;20408;-60
2023/02/10 08:04:46;;;;;;;142.77;9.95;;;;;;;-148.24;100.00;61531.34;4961925;28;20081;-60
2023/02/10 08:07:11;;;;;;;176.93;10.27;;;;;;;-148.24;100.00;61531.34;4961746;28;20701;-60
2023/02/10 08:09:37;;;;;;;235.25;16.02;;;;;;;-148.24;100.00;61531.34;4961733;28;20402;-61
2023/02/10 08:12:03;;;;;;;168.00;12.93;;;;;;;-148.24;100.00;61531.34;4959529;28;20051;-61
2023/02/10 08:14:28;;;;;;;177.23;13.27;;;;;;;-148.24;100.00;61531.34;4961925;28;20618;-58
2023/02/10 08:16:54;;;;;;;163.18;14.65;;;;;;;-148.24;100.00;61531.34;4961780;28;20043;-58
2023/02/10 08:19:19;;;;;;;180.88;11.38;;;;;;;-148.24;100.00;61531.34;4961423;28;20796;-58
2023/02/10 08:21:45;;;;;;;157.77;15.75;;;;;;;-148.24;100.00;61531.34;4960548;28;20042;-59
2023/02/10 08:24:10;;;;;;;187.13;11.40;;;;;;;-148.24;100.00;61531.34;4961653;28;20101;-60
2023/02/10 08:26:36;;;;;;;218.82;20.00;;;;;;;-148.24;100.00;61531.34;4961364;28;20042;-58
2023/02/10 08:29:02;;;;;;;181.52;18.77;;;;;;;-148.24;100.00;61531.34;4962168;28;20540;-60
2023/02/10 08:31:27;;;;;;;139.27;6.70;;;;;;;-148.24;100.00;61531.34;4960306;28;20038;-59
2023/02/10 08:33:53;;;;;;;192.20;16.83;;;;;;;-148.24;100.00;61531.34;4961906;28;20412;-59
2023/02/10 08:36:20;;;;;;;158.88;17.20;;;;;;;-148.24;100.00;61531.34;4959839;28;20254;-59
2023/02/10 08:38:47;;;;;;;195.32;12.35;;;;;;;-148.24;100.00;61531.34;4961343;28;20026;-59
2023/02/10 08:41:13;;;;;;;204.75;12.43;;;;;;;-148.24;100.00;61531.34;4959295;28;20050;-59
2023/02/10 08:43:38;;;;;;;224.50;21.60;;;;;;;-148.24;100.00;61531.34;4961459;28;20088;-60
2023/02/10 08:46:04;;;;;;;178.20;13.95;;;;;;;-148.24;100.00;61531.34;4960918;28;20039;-60
2023/02/10 08:48:30;;;;;;;150.35;10.93;;;;;;;-148.24;100.00;61531.34;4961340;28;20023;-59
2023/02/10 08:50:55;;;;;;;205.23;20.38;;;;;;;-148.24;100.00;61531.34;4959951;28;20043;-58
2023/02/10 08:53:21;;;;;;;149.98;21.90;;;;;;;-148.24;100.00;61531.34;4961227;28;20035;-61
2023/02/10 08:56:01;;;;;;;148.88;11.00;;;;;;;-148.24;100.00;61531.34;4961041;28;20043;-59
2023/02/10 08:58:28;;;;;;;146.40;14.27;;;;;;;-148.24;100.00;61531.34;4961556;28;20061;-59
2023/02/10 09:00:53;;;;;;;197.02;24.05;;;;;;;-148.24;100.00;61531.34;4960121;28;20061;-59
2023/02/10 09:03:19;;;;;;;199.00;14.20;;;;;;;-148.24;100.00;61531.34;4960741;28;20845;-61
2023/02/10 09:05:45;;;;;;;119.43;11.90;;;;;;;-148.24;100.00;61531.34;4959437;28;20054;-62
2023/02/10 09:08:12;;;;;;;181.93;12.40;;;;;;;-148.24;100.00;61531.34;4960682;28;20058;-59
2023/02/10 09:10:42;;;;;;;170.57;18.33;;;;;;;-148.24;100.00;61531.34;4959884;28;20557;-61
2023/02/10 09:13:09;;;;;;;214.35;22.50;;;;;;;-148.24;100.00;61531.34;4960791;28;20054;-61
2023/02/10 09:15:39;;;;;;;197.45;20.83;;;;;;;-148.24;100.00;61531.34;4960117;28;20031;-59
2023/02/10 09:18:06;;;;;;;160.02;14.65;;;;;;;-148.24;100.00;61531.34;4961059;28;20029;-59
2023/02/10 09:20:32;;;;;;;211.68;22.02;;;;;;;-148.24;100.00;61531.34;4959333;28;20045;-59
2023/02/10 09:22:57;;;;;;;169.93;19.85;;;;;;;-148.24;100.00;61531.34;4959672;28;20126;-59
2023/02/10 09:25:23;;;;;;;195.88;19.52;;;;;;;-148.24;100.00;61531.34;4960227;28;20027;-60
2023/02/10 09:27:48;;;;;;;169.60;17.20;;;;;;;-148.24;100.00;61531.34;4960796;28;20034;-59
2023/02/10 09:30:14;;;;;;;188.55;19.60;;;;;;;-148.24;100.00;61531.34;4959427;28;20027;-60
2023/02/10 09:32:39;;;;;;;219.13;21.73;;;;;;;-148.24;100.00;61531.34;4959825;28;20031;-59
2023/02/10 09:35:05;;;;;;;161.60;17.83;;;;;;;-148.24;100.00;61531.34;4960383;28;20084;-59
2023/02/10 09:37:30;;;;;;;156.95;15.18;;;;;;;-148.24;100.00;61531.34;4960602;28;20392;-58
2023/02/10 09:39:56;;;;;;;193.35;11.93;;;;;;;-148.24;100.00;61531.34;4959580;28;20088;-59
2023/02/10 09:43:06;;;;;;;166.60;18.55;;;;;;;-148.24;100.00;61531.34;4958837;28;20593;-62
2023/02/10 09:45:37;;;;;;;146.93;20.35;;;;;;;-148.24;100.00;61531.34;4960189;28;20061;-60
2023/02/10 09:48:31;;;;;;;214.30;21.10;;;;;;;-148.24;100.00;61531.34;4960256;28;20046;-61
2023/02/10 09:51:04;;;;;;;207.95;18.45;;;;;;;-148.24;100.00;61531.34;4973497;28;20039;-59
2023/02/10 09:53:30;;;;;;;170.15;17.17;;;;;;;-148.24;100.00;61531.34;4960005;28;20507;-59
2023/02/10 09:55:59;;;;;;;177.35;16.27;;;;;;;-148.24;100.00;61531.34;4959856;28;20038;-61
2023/02/10 09:58:30;;;;;;;140.70;18.98;;;;;;;-148.24;100.00;61531.34;4960201;28;20687;-60
2023/02/10 10:01:03;;;;;;;184.20;21.33;;;;;;;-148.24;100.00;61531.34;4958966;28;20042;-59
2023/02/10 10:03:38;;;;;;;160.30;18.85;;;;;;;-148.24;100.00;61531.34;4960814;28;20038;-60
2023/02/10 10:06:12;;;;;;;190.65;21.70;;;;;;;-148.24;100.00;61531.34;4959495;28;20041;-61
2023/02/10 10:08:43;;;;;;;137.07;13.43;;;;;;;-148.24;100.00;61531.34;4960331;28;20492;-60
2023/02/10 10:11:27;;;;;;;238.50;20.85;;;;;;;-148.24;100.00;61531.34;4958448;28;20043;-57
2023/02/10 10:13:55;;;;;;;160.27;18.38;;;;;;;-148.24;100.00;61531.34;4959687;28;20041;-57
2023/02/10 10:16:39;;;;;;;196.18;20.00;;;;;;;-148.24;100.00;61531.34;4958434;28;20038;-59
2023/02/10 10:19:19;;;;;;;174.32;13.82;;;;;;;-148.24;100.00;61531.34;4959373;28;20618;-57
2023/02/10 10:21:53;;;;;;;176.68;18.20;;;;;;;-148.24;100.00;61531.34;4957553;28;20497;-57
2023/02/10 10:24:18;;;;;;;187.18;18.60;;;;;;;-148.24;100.00;61531.34;4959349;28;20030;-58
2023/02/10 10:27:10;;;;;;;200.63;18.60;;;;;;;-148.24;100.00;61531.34;4958212;28;20041;-59
2023/02/10 10:29:46;;;;;;;272.75;20.20;;;;;;;-148.24;100.00;61531.34;4958526;28;20081;-58
2023/02/10 10:32:35;;;;;;;176.38;17.75;;;;;;;-148.24;100.00;61531.34;4958385;28;20035;-58
2023/02/10 10:35:02;;;;;;;156.13;20.10;;;;;;;-148.24;100.00;61531.34;4959521;28;20109;-58
2023/02/10 10:37:27;;;;;;;154.82;18.42;;;;;;;-148.24;100.00;61531.34;4959206;28;20042;-58
2023/02/10 10:39:59;;;;;;;212.30;18.95;;;;;;;-148.24;100.00;61531.34;4958095;28;20031;-60
2023/02/10 10:42:41;;;;;;;134.27;13.77;;;;;;;-148.24;100.00;61531.34;4958738;28;20039;-57
2023/02/10 10:45:15;;;;;;;181.27;11.10;;;;;;;-148.24;100.00;61531.34;4958804;28;20883;-59
2023/02/10 10:47:49;;;;;;;186.85;17.25;;;;;;;-148.24;100.00;61531.34;4959380;28;20069;-60
2023/02/10 10:50:18;;;;;;;165.57;15.60;;;;;;;-148.24;100.00;61531.34;4958366;28;20033;-58
2023/02/10 10:52:50;;;;;;;154.63;16.20;;;;;;;-148.24;100.00;61531.34;4958626;28;20030;-59
2023/02/10 10:55:22;;;;;;;213.70;19.33;;;;;;;-148.24;100.00;61531.34;4958882;28;20037;-59
2023/02/10 10:57:48;;;;;;;161.55;19.33;;;;;;;-148.24;100.00;61531.34;4959193;28;20038;-59
2023/02/10 11:00:22;;;;;;;227.45;20.27;;;;;;;-148.24;100.00;61531.34;4957757;28;20035;-57
2023/02/10 11:03:02;;;;;;;176.55;18.20;;;;;;;-148.24;100.00;61531.34;4958497;28;20236;-57